sensor_id;sensor_type;location;lat;lon;timestamp;temperature;humidity
67974;DHT22;54756;51.140;6.952;2023-12-04T00:01:20;0.40;99.90
67974;DHT22;54756;51.140;6.952;2023-12-04T00:03:20;0.40;99.90
67974;DHT22;54756;51.140;6.952;2023-12-04T00:05:21;0.40;99.90
67974;DHT22;54756;51.140;6.952;2023-12-04T00:07:22;0.50;99.90
67974;DHT22;54756;51.140;6.952;2023-12-04T00:09:22;0.50;99.90
67974;DHT22;54756;51.140;6.952;2023-12-04T00:11:25;0.50;99.90
67974;DHT22;54756;51.140;6.952;2023-12-04T00:13:25;0.50;99.90
67974;DHT22;54756;51.140;6.952;2023-12-04T00:15:26;0.50;99.90
67974;DHT22;54756;51.140;6.952;2023-12-04T00:17:26;0.50;99.90
67974;DHT22;54756;51.140;6.952;2023-12-04T00:19:27;0.50;99.90
67974;DHT22;54756;51.140;6.952;2023-12-04T00:21:27;0.50;99.90
67974;DHT22;54756;51.140;6.952;2023-12-04T00:23:28;0.50;99.90
67974;DHT22;54756;51.140;6.952;2023-12-04T00:25:28;0.60;99.90
67974;DHT22;54756;51.140;6.952;2023-12-04T00:27:29;0.60;99.90
67974;DHT22;54756;51.140;6.952;2023-12-04T00:29:29;0.60;99.90
67974;DHT22;54756;51.140;6.952;2023-12-04T00:31:30;0.60;99.90
67974;DHT22;54756;51.140;6.952;2023-12-04T00:33:32;0.50;99.90
67974;DHT22;54756;51.140;6.952;2023-12-04T00:35:32;0.60;99.90
67974;DHT22;54756;51.140;6.952;2023-12-04T00:37:33;0.60;99.90
67974;DHT22;54756;51.140;6.952;2023-12-04T00:39:37;0.60;99.90
67974;DHT22;54756;51.140;6.952;2023-12-04T00:41:38;0.60;99.90
67974;DHT22;54756;51.140;6.952;2023-12-04T00:43:38;0.50;99.90
67974;DHT22;54756;51.140;6.952;2023-12-04T00:45:39;0.60;99.90
67974;DHT22;54756;51.140;6.952;2023-12-04T00:47:40;0.60;99.90
67974;DHT22;54756;51.140;6.952;2023-12-04T00:49:40;0.60;99.90
67974;DHT22;54756;51.140;6.952;2023-12-04T00:51:41;0.60;99.90
67974;DHT22;54756;51.140;6.952;2023-12-04T00:53:41;0.60;99.90
67974;DHT22;54756;51.140;6.952;2023-12-04T00:55:42;0.60;99.90
67974;DHT22;54756;51.140;6.952;2023-12-04T00:57:42;0.60;99.90
67974;DHT22;54756;51.140;6.952;2023-12-04T00:59:43;0.60;99.90
67974;DHT22;54756;51.140;6.952;2023-12-04T01:01:44;0.60;99.90
67974;DHT22;54756;51.140;6.952;2023-12-04T01:03:44;0.60;99.90
67974;DHT22;54756;51.140;6.952;2023-12-04T01:05:45;0.60;99.90
67974;DHT22;54756;51.140;6.952;2023-12-04T01:07:45;0.60;99.90
67974;DHT22;54756;51.140;6.952;2023-12-04T01:09:46;0.60;99.90
67974;DHT22;54756;51.140;6.952;2023-12-04T01:11:46;0.60;99.90
67974;DHT22;54756;51.140;6.952;2023-12-04T01:13:47;0.60;99.90
67974;DHT22;54756;51.140;6.952;2023-12-04T01:15:48;0.60;99.90
67974;DHT22;54756;51.140;6.952;2023-12-04T01:17:49;0.60;99.90
67974;DHT22;54756;51.140;6.952;2023-12-04T01:19:50;0.60;99.90
67974;DHT22;54756;51.140;6.952;2023-12-04T01:21:50;0.60;99.90
67974;DHT22;54756;51.140;6.952;2023-12-04T01:23:51;0.60;99.90
67974;DHT22;54756;51.140;6.952;2023-12-04T01:25:51;0.60;99.90
67974;DHT22;54756;51.140;6.952;2023-12-04T01:27:52;0.60;99.90
67974;DHT22;54756;51.140;6.952;2023-12-04T01:29:53;0.60;99.90
67974;DHT22;54756;51.140;6.952;2023-12-04T01:31:53;0.60;99.90
67974;DHT22;54756;51.140;6.952;2023-12-04T01:33:54;0.60;99.90
67974;DHT22;54756;51.140;6.952;2023-12-04T01:35:54;0.50;99.90
67974;DHT22;54756;51.140;6.952;2023-12-04T01:37:55;0.50;99.90
67974;DHT22;54756;51.140;6.952;2023-12-04T01:39:55;0.50;99.90
67974;DHT22;54756;51.140;6.952;2023-12-04T01:41:56;0.50;99.90
67974;DHT22;54756;51.140;6.952;2023-12-04T01:43:56;0.50;99.90
67974;DHT22;54756;51.140;6.952;2023-12-04T01:45:57;0.50;99.90
67974;DHT22;54756;51.140;6.952;2023-12-04T01:47:59;0.60;99.90
67974;DHT22;54756;51.140;6.952;2023-12-04T01:50:00;0.60;99.90
67974;DHT22;54756;51.140;6.952;2023-12-04T01:52:01;0.50;99.90
67974;DHT22;54756;51.140;6.952;2023-12-04T01:54:03;0.50;99.90
67974;DHT22;54756;51.140;6.952;2023-12-04T01:56:06;0.50;99.90
67974;DHT22;54756;51.140;6.952;2023-12-04T01:58:07;0.50;99.90
67974;DHT22;54756;51.140;6.952;2023-12-04T02:00:08;0.50;99.90
67974;DHT22;54756;51.140;6.952;2023-12-04T02:02:13;0.50;99.90
67974;DHT22;54756;51.140;6.952;2023-12-04T02:04:13;0.50;99.90
67974;DHT22;54756;51.140;6.952;2023-12-04T02:06:16;0.50;99.90
67974;DHT22;54756;51.140;6.952;2023-12-04T02:08:17;0.50;99.90
67974;DHT22;54756;51.140;6.952;2023-12-04T02:10:18;0.50;99.90
67974;DHT22;54756;51.140;6.952;2023-12-04T02:12:18;0.50;99.90
67974;DHT22;54756;51.140;6.952;2023-12-04T02:14:19;0.60;99.90
67974;DHT22;54756;51.140;6.952;2023-12-04T02:16:20;0.60;99.90
67974;DHT22;54756;51.140;6.952;2023-12-04T02:18:23;0.60;99.90
67974;DHT22;54756;51.140;6.952;2023-12-04T02:20:34;0.50;99.90
67974;DHT22;54756;51.140;6.952;2023-12-04T02:22:35;0.60;99.90
67974;DHT22;54756;51.140;6.952;2023-12-04T02:24:35;0.50;99.90
67974;DHT22;54756;51.140;6.952;2023-12-04T02:26:44;0.60;99.90
67974;DHT22;54756;51.140;6.952;2023-12-04T02:28:50;0.60;99.90
67974;DHT22;54756;51.140;6.952;2023-12-04T02:30:53;0.60;99.90
67974;DHT22;54756;51.140;6.952;2023-12-04T02:32:55;0.60;99.90
67974;DHT22;54756;51.140;6.952;2023-12-04T02:34:57;0.60;99.90
67974;DHT22;54756;51.140;6.952;2023-12-04T02:37:01;0.60;99.90
67974;DHT22;54756;51.140;6.952;2023-12-04T02:39:02;0.60;99.90
67974;DHT22;54756;51.140;6.952;2023-12-04T02:41:04;0.60;99.90
67974;DHT22;54756;51.140;6.952;2023-12-04T02:43:05;0.60;99.90
67974;DHT22;54756;51.140;6.952;2023-12-04T02:45:05;0.60;99.90
67974;DHT22;54756;51.140;6.952;2023-12-04T02:47:06;0.60;99.90
67974;DHT22;54756;51.140;6.952;2023-12-04T02:49:07;0.60;99.90
67974;DHT22;54756;51.140;6.952;2023-12-04T02:51:07;0.60;99.90
67974;DHT22;54756;51.140;6.952;2023-12-04T02:53:08;0.60;99.90
67974;DHT22;54756;51.140;6.952;2023-12-04T02:55:08;0.60;99.90
67974;DHT22;54756;51.140;6.952;2023-12-04T02:57:09;0.60;99.90
67974;DHT22;54756;51.140;6.952;2023-12-04T02:59:09;0.60;99.90
67974;DHT22;54756;51.140;6.952;2023-12-04T03:01:10;0.60;99.90
67974;DHT22;54756;51.140;6.952;2023-12-04T03:03:10;0.60;99.90
67974;DHT22;54756;51.140;6.952;2023-12-04T03:05:11;0.60;99.90
67974;DHT22;54756;51.140;6.952;2023-12-04T03:07:12;0.60;99.90
67974;DHT22;54756;51.140;6.952;2023-12-04T03:09:12;0.60;99.90
67974;DHT22;54756;51.140;6.952;2023-12-04T03:11:13;0.60;99.90
67974;DHT22;54756;51.140;6.952;2023-12-04T03:13:14;0.60;99.90
67974;DHT22;54756;51.140;6.952;2023-12-04T03:15:14;0.60;99.90
67974;DHT22;54756;51.140;6.952;2023-12-04T03:17:15;0.60;99.90
67974;DHT22;54756;51.140;6.952;2023-12-04T03:19:15;0.60;99.90
67974;DHT22;54756;51.140;6.952;2023-12-04T03:21:16;0.60;99.90
67974;DHT22;54756;51.140;6.952;2023-12-04T03:23:16;0.60;99.90
67974;DHT22;54756;51.140;6.952;2023-12-04T03:25:17;0.60;99.90
67974;DHT22;54756;51.140;6.952;2023-12-04T03:27:17;0.60;99.90
67974;DHT22;54756;51.140;6.952;2023-12-04T03:29:18;0.60;99.90
67974;DHT22;54756;51.140;6.952;2023-12-04T03:31:19;0.60;99.90
67974;DHT22;54756;51.140;6.952;2023-12-04T03:33:19;0.60;99.90
67974;DHT22;54756;51.140;6.952;2023-12-04T03:35:20;0.60;99.90
67974;DHT22;54756;51.140;6.952;2023-12-04T03:37:20;0.60;99.90
67974;DHT22;54756;51.140;6.952;2023-12-04T03:39:21;0.60;99.90
67974;DHT22;54756;51.140;6.952;2023-12-04T03:41:21;0.60;99.90
67974;DHT22;54756;51.140;6.952;2023-12-04T03:43:23;0.60;99.90
67974;DHT22;54756;51.140;6.952;2023-12-04T03:45:24;0.60;99.90
67974;DHT22;54756;51.140;6.952;2023-12-04T03:47:24;0.60;99.90
67974;DHT22;54756;51.140;6.952;2023-12-04T03:49:25;0.60;99.90
67974;DHT22;54756;51.140;6.952;2023-12-04T03:51:26;0.60;99.90
67974;DHT22;54756;51.140;6.952;2023-12-04T03:53:26;0.60;99.90
67974;DHT22;54756;51.140;6.952;2023-12-04T03:55:27;0.60;99.90
67974;DHT22;54756;51.140;6.952;2023-12-04T03:57:27;0.60;99.90
67974;DHT22;54756;51.140;6.952;2023-12-04T03:59:28;0.60;99.90
67974;DHT22;54756;51.140;6.952;2023-12-04T04:01:29;0.60;99.90
67974;DHT22;54756;51.140;6.952;2023-12-04T04:03:29;0.60;99.90
67974;DHT22;54756;51.140;6.952;2023-12-04T04:05:30;0.60;99.90
67974;DHT22;54756;51.140;6.952;2023-12-04T04:07:30;0.60;99.90
67974;DHT22;54756;51.140;6.952;2023-12-04T04:09:31;0.60;99.90
67974;DHT22;54756;51.140;6.952;2023-12-04T04:11:32;0.60;99.90
67974;DHT22;54756;51.140;6.952;2023-12-04T04:13:32;0.60;99.90
67974;DHT22;54756;51.140;6.952;2023-12-04T04:15:33;0.70;99.90
67974;DHT22;54756;51.140;6.952;2023-12-04T04:17:33;0.60;99.90
67974;DHT22;54756;51.140;6.952;2023-12-04T04:19:34;0.60;99.90
67974;DHT22;54756;51.140;6.952;2023-12-04T04:21:38;0.60;99.90
67974;DHT22;54756;51.140;6.952;2023-12-04T04:23:39;0.60;99.90
67974;DHT22;54756;51.140;6.952;2023-12-04T04:25:39;0.70;99.90
67974;DHT22;54756;51.140;6.952;2023-12-04T04:27:40;0.70;99.90
67974;DHT22;54756;51.140;6.952;2023-12-04T04:29:41;0.60;99.90
67974;DHT22;54756;51.140;6.952;2023-12-04T04:31:41;0.70;99.90
67974;DHT22;54756;51.140;6.952;2023-12-04T04:33:42;0.70;99.90
67974;DHT22;54756;51.140;6.952;2023-12-04T04:35:42;0.70;99.90
67974;DHT22;54756;51.140;6.952;2023-12-04T04:37:43;0.70;99.90
67974;DHT22;54756;51.140;6.952;2023-12-04T04:39:43;0.60;99.90
67974;DHT22;54756;51.140;6.952;2023-12-04T04:41:44;0.70;99.90
67974;DHT22;54756;51.140;6.952;2023-12-04T04:43:45;0.70;99.90
67974;DHT22;54756;51.140;6.952;2023-12-04T04:45:46;0.70;99.90
67974;DHT22;54756;51.140;6.952;2023-12-04T04:47:46;0.70;99.90
67974;DHT22;54756;51.140;6.952;2023-12-04T04:49:47;0.60;99.90
67974;DHT22;54756;51.140;6.952;2023-12-04T04:51:48;0.60;99.90
67974;DHT22;54756;51.140;6.952;2023-12-04T04:53:48;0.60;99.90
67974;DHT22;54756;51.140;6.952;2023-12-04T04:55:49;0.60;99.90
67974;DHT22;54756;51.140;6.952;2023-12-04T04:57:49;0.70;99.90
67974;DHT22;54756;51.140;6.952;2023-12-04T04:59:50;0.60;99.90
67974;DHT22;54756;51.140;6.952;2023-12-04T05:01:50;0.70;99.90
67974;DHT22;54756;51.140;6.952;2023-12-04T05:03:51;0.60;99.90
67974;DHT22;54756;51.140;6.952;2023-12-04T05:05:52;0.60;99.90
67974;DHT22;54756;51.140;6.952;2023-12-04T05:07:52;0.70;99.90
67974;DHT22;54756;51.140;6.952;2023-12-04T05:09:53;0.60;99.90
67974;DHT22;54756;51.140;6.952;2023-12-04T05:11:53;0.60;99.90
67974;DHT22;54756;51.140;6.952;2023-12-04T05:13:54;0.70;99.90
67974;DHT22;54756;51.140;6.952;2023-12-04T05:15:55;0.60;99.90
67974;DHT22;54756;51.140;6.952;2023-12-04T05:17:55;0.60;99.90
67974;DHT22;54756;51.140;6.952;2023-12-04T05:19:56;0.60;99.90
67974;DHT22;54756;51.140;6.952;2023-12-04T05:21:56;0.60;99.90
67974;DHT22;54756;51.140;6.952;2023-12-04T05:23:57;0.60;99.90
67974;DHT22;54756;51.140;6.952;2023-12-04T05:25:57;0.60;99.90
67974;DHT22;54756;51.140;6.952;2023-12-04T05:27:58;0.60;99.90
67974;DHT22;54756;51.140;6.952;2023-12-04T05:29:58;0.60;99.90
67974;DHT22;54756;51.140;6.952;2023-12-04T05:31:59;0.60;99.90
67974;DHT22;54756;51.140;6.952;2023-12-04T05:33:59;0.60;99.90
67974;DHT22;54756;51.140;6.952;2023-12-04T05:36:00;0.60;99.90
67974;DHT22;54756;51.140;6.952;2023-12-04T05:38:01;0.60;99.90
67974;DHT22;54756;51.140;6.952;2023-12-04T05:40:02;0.60;99.90
67974;DHT22;54756;51.140;6.952;2023-12-04T05:42:04;0.60;99.90
67974;DHT22;54756;51.140;6.952;2023-12-04T05:44:04;0.60;99.90
67974;DHT22;54756;51.140;6.952;2023-12-04T05:46:05;0.60;99.90
67974;DHT22;54756;51.140;6.952;2023-12-04T05:48:06;0.60;99.90
67974;DHT22;54756;51.140;6.952;2023-12-04T05:50:07;0.60;99.90
67974;DHT22;54756;51.140;6.952;2023-12-04T05:52:07;0.60;99.90
67974;DHT22;54756;51.140;6.952;2023-12-04T05:54:08;0.60;99.90
67974;DHT22;54756;51.140;6.952;2023-12-04T05:56:09;0.60;99.90
67974;DHT22;54756;51.140;6.952;2023-12-04T05:58:10;0.60;99.90
67974;DHT22;54756;51.140;6.952;2023-12-04T06:00:11;0.60;99.90
67974;DHT22;54756;51.140;6.952;2023-12-04T06:02:13;0.60;99.90
67974;DHT22;54756;51.140;6.952;2023-12-04T06:04:15;0.60;99.90
67974;DHT22;54756;51.140;6.952;2023-12-04T06:06:16;0.60;99.90
67974;DHT22;54756;51.140;6.952;2023-12-04T06:08:16;0.60;99.90
67974;DHT22;54756;51.140;6.952;2023-12-04T06:10:17;0.60;99.90
67974;DHT22;54756;51.140;6.952;2023-12-04T06:12:17;0.60;99.90
67974;DHT22;54756;51.140;6.952;2023-12-04T06:14:18;0.60;99.90
67974;DHT22;54756;51.140;6.952;2023-12-04T06:16:18;0.60;99.90
67974;DHT22;54756;51.140;6.952;2023-12-04T06:18:19;0.60;99.90
67974;DHT22;54756;51.140;6.952;2023-12-04T06:20:21;0.60;99.90
67974;DHT22;54756;51.140;6.952;2023-12-04T06:22:21;0.60;99.90
67974;DHT22;54756;51.140;6.952;2023-12-04T06:24:22;0.60;99.90
67974;DHT22;54756;51.140;6.952;2023-12-04T06:26:23;0.60;99.90
67974;DHT22;54756;51.140;6.952;2023-12-04T06:28:24;0.60;99.90
67974;DHT22;54756;51.140;6.952;2023-12-04T06:30:25;0.60;99.90
67974;DHT22;54756;51.140;6.952;2023-12-04T06:32:26;0.60;99.90
67974;DHT22;54756;51.140;6.952;2023-12-04T06:34:27;0.70;99.90
67974;DHT22;54756;51.140;6.952;2023-12-04T06:36:31;0.60;99.90
67974;DHT22;54756;51.140;6.952;2023-12-04T06:38:39;0.60;99.90
67974;DHT22;54756;51.140;6.952;2023-12-04T06:40:40;0.60;99.90
67974;DHT22;54756;51.140;6.952;2023-12-04T06:42:41;0.60;99.90
67974;DHT22;54756;51.140;6.952;2023-12-04T06:44:41;0.60;99.90
67974;DHT22;54756;51.140;6.952;2023-12-04T06:46:44;0.60;99.90
67974;DHT22;54756;51.140;6.952;2023-12-04T06:48:48;0.60;99.90
67974;DHT22;54756;51.140;6.952;2023-12-04T06:50:49;0.60;99.90
67974;DHT22;54756;51.140;6.952;2023-12-04T06:52:50;0.60;99.90
67974;DHT22;54756;51.140;6.952;2023-12-04T06:54:50;0.60;99.90
67974;DHT22;54756;51.140;6.952;2023-12-04T06:56:51;0.60;99.90
67974;DHT22;54756;51.140;6.952;2023-12-04T06:58:51;0.60;99.90
67974;DHT22;54756;51.140;6.952;2023-12-04T07:00:52;0.60;99.90
67974;DHT22;54756;51.140;6.952;2023-12-04T07:02:53;0.60;99.90
67974;DHT22;54756;51.140;6.952;2023-12-04T07:04:54;0.60;99.90
67974;DHT22;54756;51.140;6.952;2023-12-04T07:06:54;0.60;99.90
67974;DHT22;54756;51.140;6.952;2023-12-04T07:08:55;0.60;99.90
67974;DHT22;54756;51.140;6.952;2023-12-04T07:10:55;0.60;99.90
67974;DHT22;54756;51.140;6.952;2023-12-04T07:12:56;0.60;99.90
67974;DHT22;54756;51.140;6.952;2023-12-04T07:14:57;0.60;99.90
67974;DHT22;54756;51.140;6.952;2023-12-04T07:16:57;0.60;99.90
67974;DHT22;54756;51.140;6.952;2023-12-04T07:18:58;0.60;99.90
67974;DHT22;54756;51.140;6.952;2023-12-04T07:20:58;0.60;99.90
67974;DHT22;54756;51.140;6.952;2023-12-04T07:22:59;0.60;99.90
67974;DHT22;54756;51.140;6.952;2023-12-04T07:25:00;0.70;99.90
67974;DHT22;54756;51.140;6.952;2023-12-04T07:27:00;0.70;99.90
67974;DHT22;54756;51.140;6.952;2023-12-04T07:29:02;0.60;99.90
67974;DHT22;54756;51.140;6.952;2023-12-04T07:31:03;0.70;99.90
67974;DHT22;54756;51.140;6.952;2023-12-04T07:33:04;0.70;99.90
67974;DHT22;54756;51.140;6.952;2023-12-04T07:35:05;0.70;99.90
67974;DHT22;54756;51.140;6.952;2023-12-04T07:37:06;0.70;99.90
67974;DHT22;54756;51.140;6.952;2023-12-04T07:39:07;0.70;99.90
67974;DHT22;54756;51.140;6.952;2023-12-04T07:41:09;0.70;99.90
67974;DHT22;54756;51.140;6.952;2023-12-04T07:43:09;0.70;99.90
67974;DHT22;54756;51.140;6.952;2023-12-04T07:45:10;0.70;99.90
67974;DHT22;54756;51.140;6.952;2023-12-04T07:47:11;0.70;99.90
67974;DHT22;54756;51.140;6.952;2023-12-04T07:49:12;0.70;99.90
67974;DHT22;54756;51.140;6.952;2023-12-04T07:51:12;0.80;99.90
67974;DHT22;54756;51.140;6.952;2023-12-04T07:53:13;0.80;99.90
67974;DHT22;54756;51.140;6.952;2023-12-04T07:55:14;0.80;99.90
67974;DHT22;54756;51.140;6.952;2023-12-04T07:57:14;0.80;99.90
67974;DHT22;54756;51.140;6.952;2023-12-04T07:59:15;0.80;99.90
67974;DHT22;54756;51.140;6.952;2023-12-04T08:01:16;0.90;99.90
67974;DHT22;54756;51.140;6.952;2023-12-04T08:03:16;0.90;99.90
67974;DHT22;54756;51.140;6.952;2023-12-04T08:05:17;0.90;99.90
67974;DHT22;54756;51.140;6.952;2023-12-04T08:07:17;0.90;99.90
67974;DHT22;54756;51.140;6.952;2023-12-04T08:09:18;0.90;99.90
67974;DHT22;54756;51.140;6.952;2023-12-04T08:11:18;0.90;99.90
67974;DHT22;54756;51.140;6.952;2023-12-04T08:13:19;1.00;99.90
67974;DHT22;54756;51.140;6.952;2023-12-04T08:15:20;1.00;99.90
67974;DHT22;54756;51.140;6.952;2023-12-04T08:17:21;1.00;99.90
67974;DHT22;54756;51.140;6.952;2023-12-04T08:19:21;1.00;99.90
67974;DHT22;54756;51.140;6.952;2023-12-04T08:21:23;1.00;99.90
67974;DHT22;54756;51.140;6.952;2023-12-04T08:23:23;1.00;99.90
67974;DHT22;54756;51.140;6.952;2023-12-04T08:25:24;1.10;99.90
67974;DHT22;54756;51.140;6.952;2023-12-04T08:27:24;1.10;99.90
67974;DHT22;54756;51.140;6.952;2023-12-04T08:29:25;1.10;99.90
67974;DHT22;54756;51.140;6.952;2023-12-04T08:31:25;1.10;99.90
67974;DHT22;54756;51.140;6.952;2023-12-04T08:33:26;1.10;99.90
67974;DHT22;54756;51.140;6.952;2023-12-04T08:35:26;1.10;99.90
67974;DHT22;54756;51.140;6.952;2023-12-04T08:37:27;1.10;99.90
67974;DHT22;54756;51.140;6.952;2023-12-04T08:39:27;1.10;99.90
67974;DHT22;54756;51.140;6.952;2023-12-04T08:41:28;1.10;99.90
67974;DHT22;54756;51.140;6.952;2023-12-04T08:43:29;1.10;99.90
67974;DHT22;54756;51.140;6.952;2023-12-04T08:45:29;1.20;99.90
67974;DHT22;54756;51.140;6.952;2023-12-04T08:47:30;1.20;99.90
67974;DHT22;54756;51.140;6.952;2023-12-04T08:49:31;1.20;99.90
67974;DHT22;54756;51.140;6.952;2023-12-04T08:51:32;1.20;99.90
67974;DHT22;54756;51.140;6.952;2023-12-04T08:53:33;1.20;99.90
67974;DHT22;54756;51.140;6.952;2023-12-04T08:55:33;1.20;99.90
67974;DHT22;54756;51.140;6.952;2023-12-04T08:57:34;1.20;99.90
67974;DHT22;54756;51.140;6.952;2023-12-04T08:59:35;1.20;99.90
67974;DHT22;54756;51.140;6.952;2023-12-04T09:01:35;1.20;99.90
67974;DHT22;54756;51.140;6.952;2023-12-04T09:03:36;1.20;99.90
67974;DHT22;54756;51.140;6.952;2023-12-04T09:05:37;1.20;99.90
67974;DHT22;54756;51.140;6.952;2023-12-04T09:07:38;1.20;99.90
67974;DHT22;54756;51.140;6.952;2023-12-04T09:09:38;1.20;99.90
67974;DHT22;54756;51.140;6.952;2023-12-04T09:11:43;1.20;99.90
67974;DHT22;54756;51.140;6.952;2023-12-04T09:13:43;1.20;99.90
67974;DHT22;54756;51.140;6.952;2023-12-04T09:15:44;1.30;99.90
67974;DHT22;54756;51.140;6.952;2023-12-04T09:17:44;1.20;99.90
67974;DHT22;54756;51.140;6.952;2023-12-04T09:19:45;1.20;99.90
67974;DHT22;54756;51.140;6.952;2023-12-04T09:21:45;1.30;99.90
67974;DHT22;54756;51.140;6.952;2023-12-04T09:23:47;1.30;99.90
67974;DHT22;54756;51.140;6.952;2023-12-04T09:25:50;1.30;99.90
67974;DHT22;54756;51.140;6.952;2023-12-04T09:27:51;1.30;99.90
67974;DHT22;54756;51.140;6.952;2023-12-04T09:29:51;1.30;99.90
67974;DHT22;54756;51.140;6.952;2023-12-04T09:31:52;1.30;99.90
67974;DHT22;54756;51.140;6.952;2023-12-04T09:33:52;1.30;99.90
67974;DHT22;54756;51.140;6.952;2023-12-04T09:35:53;1.30;99.90
67974;DHT22;54756;51.140;6.952;2023-12-04T09:37:53;1.30;99.90
67974;DHT22;54756;51.140;6.952;2023-12-04T09:39:54;1.30;99.90
67974;DHT22;54756;51.140;6.952;2023-12-04T09:41:55;1.30;99.90
67974;DHT22;54756;51.140;6.952;2023-12-04T09:43:56;1.30;99.90
67974;DHT22;54756;51.140;6.952;2023-12-04T09:45:58;1.30;99.90
67974;DHT22;54756;51.140;6.952;2023-12-04T09:47:58;1.30;99.90
67974;DHT22;54756;51.140;6.952;2023-12-04T09:50:00;1.30;99.90
67974;DHT22;54756;51.140;6.952;2023-12-04T09:52:01;1.30;99.90
67974;DHT22;54756;51.140;6.952;2023-12-04T09:54:03;1.30;99.90
67974;DHT22;54756;51.140;6.952;2023-12-04T09:56:07;1.30;99.90
67974;DHT22;54756;51.140;6.952;2023-12-04T09:58:11;1.30;99.90
67974;DHT22;54756;51.140;6.952;2023-12-04T10:00:13;1.30;99.90
67974;DHT22;54756;51.140;6.952;2023-12-04T10:02:14;1.30;99.90
67974;DHT22;54756;51.140;6.952;2023-12-04T10:04:15;1.30;99.90
67974;DHT22;54756;51.140;6.952;2023-12-04T10:06:16;1.40;99.90
67974;DHT22;54756;51.140;6.952;2023-12-04T10:08:19;1.40;99.90
67974;DHT22;54756;51.140;6.952;2023-12-04T10:10:20;1.40;99.90
67974;DHT22;54756;51.140;6.952;2023-12-04T10:12:20;1.40;99.90
67974;DHT22;54756;51.140;6.952;2023-12-04T10:14:22;1.40;99.90
67974;DHT22;54756;51.140;6.952;2023-12-04T10:16:41;1.40;99.90
67974;DHT22;54756;51.140;6.952;2023-12-04T10:18:41;1.40;99.90
67974;DHT22;54756;51.140;6.952;2023-12-04T10:20:55;1.40;99.90
67974;DHT22;54756;51.140;6.952;2023-12-04T10:22:57;1.50;99.90
67974;DHT22;54756;51.140;6.952;2023-12-04T10:24:58;1.50;99.90
67974;DHT22;54756;51.140;6.952;2023-12-04T10:27:00;1.50;99.90
67974;DHT22;54756;51.140;6.952;2023-12-04T10:29:02;1.50;99.90
67974;DHT22;54756;51.140;6.952;2023-12-04T10:31:03;1.50;99.90
67974;DHT22;54756;51.140;6.952;2023-12-04T10:33:08;1.50;99.90
67974;DHT22;54756;51.140;6.952;2023-12-04T10:35:08;1.50;99.90
67974;DHT22;54756;51.140;6.952;2023-12-04T10:37:10;1.60;99.90
67974;DHT22;54756;51.140;6.952;2023-12-04T10:39:12;1.50;99.90
67974;DHT22;54756;51.140;6.952;2023-12-04T10:41:13;1.60;99.90
67974;DHT22;54756;51.140;6.952;2023-12-04T10:43:19;1.60;99.90
67974;DHT22;54756;51.140;6.952;2023-12-04T10:45:22;1.60;99.90
67974;DHT22;54756;51.140;6.952;2023-12-04T10:47:24;1.60;99.90
67974;DHT22;54756;51.140;6.952;2023-12-04T10:49:28;1.60;99.90
67974;DHT22;54756;51.140;6.952;2023-12-04T10:51:30;1.60;99.90
67974;DHT22;54756;51.140;6.952;2023-12-04T10:53:31;1.60;99.90
67974;DHT22;54756;51.140;6.952;2023-12-04T10:55:32;1.60;99.90
67974;DHT22;54756;51.140;6.952;2023-12-04T10:57:37;1.60;99.90
67974;DHT22;54756;51.140;6.952;2023-12-04T10:59:38;1.70;99.90
67974;DHT22;54756;51.140;6.952;2023-12-04T11:01:42;1.70;99.90
67974;DHT22;54756;51.140;6.952;2023-12-04T11:03:48;1.70;99.90
67974;DHT22;54756;51.140;6.952;2023-12-04T11:05:56;1.70;99.90
67974;DHT22;54756;51.140;6.952;2023-12-04T11:08:02;1.70;99.90
67974;DHT22;54756;51.140;6.952;2023-12-04T11:10:03;1.70;99.90
67974;DHT22;54756;51.140;6.952;2023-12-04T11:12:08;1.70;99.90
67974;DHT22;54756;51.140;6.952;2023-12-04T11:14:12;1.70;99.90
67974;DHT22;54756;51.140;6.952;2023-12-04T11:16:25;1.70;99.90
67974;DHT22;54756;51.140;6.952;2023-12-04T11:18:29;1.70;99.90
67974;DHT22;54756;51.140;6.952;2023-12-04T11:20:34;1.70;99.90
67974;DHT22;54756;51.140;6.952;2023-12-04T11:22:38;1.70;99.90
67974;DHT22;54756;51.140;6.952;2023-12-04T11:24:40;1.70;99.90
67974;DHT22;54756;51.140;6.952;2023-12-04T11:26:41;1.70;99.90
67974;DHT22;54756;51.140;6.952;2023-12-04T11:28:43;1.70;99.90
67974;DHT22;54756;51.140;6.952;2023-12-04T11:30:44;1.70;99.90
67974;DHT22;54756;51.140;6.952;2023-12-04T11:32:48;1.70;99.90
67974;DHT22;54756;51.140;6.952;2023-12-04T11:34:50;1.70;99.90
67974;DHT22;54756;51.140;6.952;2023-12-04T11:36:52;1.70;99.90
67974;DHT22;54756;51.140;6.952;2023-12-04T11:38:52;1.70;99.90
67974;DHT22;54756;51.140;6.952;2023-12-04T11:40:53;1.70;99.90
67974;DHT22;54756;51.140;6.952;2023-12-04T11:42:54;1.70;99.90
67974;DHT22;54756;51.140;6.952;2023-12-04T11:44:58;1.70;99.90
67974;DHT22;54756;51.140;6.952;2023-12-04T11:47:06;1.60;99.90
67974;DHT22;54756;51.140;6.952;2023-12-04T11:49:36;1.60;99.90
67974;DHT22;54756;51.140;6.952;2023-12-04T11:53:44;1.60;99.90
67974;DHT22;54756;51.140;6.952;2023-12-04T11:55:46;1.60;99.90
67974;DHT22;54756;51.140;6.952;2023-12-04T11:57:46;1.60;99.90
67974;DHT22;54756;51.140;6.952;2023-12-04T11:59:47;1.50;99.90
67974;DHT22;54756;51.140;6.952;2023-12-04T12:01:50;1.60;99.90
67974;DHT22;54756;51.140;6.952;2023-12-04T12:03:51;1.50;99.90
67974;DHT22;54756;51.140;6.952;2023-12-04T12:05:52;1.60;99.90
67974;DHT22;54756;51.140;6.952;2023-12-04T12:07:53;1.50;99.90
67974;DHT22;54756;51.140;6.952;2023-12-04T12:09:55;1.60;99.90
67974;DHT22;54756;51.140;6.952;2023-12-04T12:11:55;1.60;99.90
67974;DHT22;54756;51.140;6.952;2023-12-04T12:13:56;1.50;99.90
67974;DHT22;54756;51.140;6.952;2023-12-04T12:15:58;1.50;99.90
67974;DHT22;54756;51.140;6.952;2023-12-04T12:17:59;1.50;99.90
67974;DHT22;54756;51.140;6.952;2023-12-04T12:19:59;1.50;99.90
67974;DHT22;54756;51.140;6.952;2023-12-04T12:22:00;1.50;99.90
67974;DHT22;54756;51.140;6.952;2023-12-04T12:24:00;1.50;99.90
67974;DHT22;54756;51.140;6.952;2023-12-04T12:26:01;1.50;99.90
67974;DHT22;54756;51.140;6.952;2023-12-04T12:28:02;1.50;99.90
67974;DHT22;54756;51.140;6.952;2023-12-04T12:30:04;1.50;99.90
67974;DHT22;54756;51.140;6.952;2023-12-04T12:32:05;1.50;99.90
67974;DHT22;54756;51.140;6.952;2023-12-04T12:34:06;1.50;99.90
67974;DHT22;54756;51.140;6.952;2023-12-04T12:36:07;1.50;99.90
67974;DHT22;54756;51.140;6.952;2023-12-04T12:38:09;1.60;99.90
67974;DHT22;54756;51.140;6.952;2023-12-04T12:40:09;1.50;99.90
67974;DHT22;54756;51.140;6.952;2023-12-04T12:42:10;1.50;99.90
67974;DHT22;54756;51.140;6.952;2023-12-04T12:44:11;1.60;99.90
67974;DHT22;54756;51.140;6.952;2023-12-04T12:46:11;1.50;99.90
67974;DHT22;54756;51.140;6.952;2023-12-04T12:48:16;1.60;99.90
67974;DHT22;54756;51.140;6.952;2023-12-04T12:50:17;1.50;99.90
67974;DHT22;54756;51.140;6.952;2023-12-04T12:52:17;1.60;99.90
67974;DHT22;54756;51.140;6.952;2023-12-04T12:54:23;1.60;99.90
67974;DHT22;54756;51.140;6.952;2023-12-04T12:56:25;1.60;99.90
67974;DHT22;54756;51.140;6.952;2023-12-04T12:58:27;1.60;99.90
67974;DHT22;54756;51.140;6.952;2023-12-04T13:00:27;1.60;99.90